^^
Station Historical Data
Daily Summary for January 14, 2018 Units:  English    Metric   Both
« Previous Day
Next Day »
Daily Weekly Monthly Yearly Custom
  High: Low: Average:
Temperature: TemperatureF °F 75.9 °F 81.1 °F
Dew Point: DewpointF °F 45.7 °F 46.7 °F
Humidity: Humidity% 25% 30%
Wind Speed: WindSpeedMPHmph -999.9mph -15.5mph
Wind Gust: WindSpeedGustMPHmph - -
Wind- -
Pressure: PressureIn in 29.52 in -
Precipitation: 0.00 in    
Historical Graphs
 
 
Tabular Data for January 14, 2018
Time Temperature Dew Point Pressure Wind Wind Speed Wind Gust Humidity Rainfall Rate (Hourly) solar Conditions
TemperatureF °F DewpointF °F PressureIn in Calm     Humidity% HourlyPrecipIn in SoftwareType W/m2 Conditions
08:14 75.9 °F 46.2 °F 29.60 in NW 4.9 mph 7.0 mph 35% 0.00 in meteobridge W/m2
08:20 76.5 °F 46.0 °F 29.61 in North 4.0 mph 9.0 mph 34% 0.00 in meteobridge W/m2
08:26 77.2 °F 46.6 °F 29.61 in NNE 10.1 mph 12.0 mph 34% 0.00 in meteobridge W/m2
08:33 76.6 °F 46.2 °F 29.61 in NNE 4.9 mph 9.0 mph 34% 0.00 in meteobridge W/m2
08:39 77.0 °F 46.4 °F 29.62 in NNE 4.9 mph 11.0 mph 34% 0.00 in meteobridge W/m2
08:45 77.7 °F 46.4 °F 29.61 in NNE 6.9 mph 11.0 mph 33% 0.00 in meteobridge W/m2
08:51 77.7 °F 47.1 °F 29.62 in NNE 4.0 mph 12.0 mph 34% 0.00 in meteobridge W/m2
09:01 77.4 °F 46.8 °F 29.62 in NNE 8.1 mph 12.0 mph 34% 0.00 in meteobridge W/m2
09:07 78.1 °F 46.6 °F 29.62 in North 6.0 mph 11.0 mph 33% 0.00 in meteobridge W/m2
09:13 78.3 °F 46.8 °F 29.62 in North 6.9 mph 9.0 mph 33% 0.00 in meteobridge W/m2
09:19 79.0 °F 47.5 °F 29.61 in NNE 12.1 mph 12.1 mph 33% 0.00 in meteobridge W/m2
09:25 79.0 °F 46.6 °F 29.62 in North 4.0 mph 10.0 mph 32% 0.00 in meteobridge W/m2
09:31 79.0 °F 46.6 °F 29.62 in NNW 6.9 mph 7.0 mph 32% 0.00 in meteobridge W/m2
09:39 79.3 °F 46.9 °F 29.62 in NNE 8.1 mph 9.0 mph 32% 0.00 in meteobridge W/m2
09:45 80.1 °F 46.8 °F 29.62 in Calm   4.0 mph 31% 0.00 in meteobridge W/m2
09:58 80.6 °F 47.1 °F 29.62 in NNW 2.9 mph 11.0 mph 31% 0.00 in meteobridge W/m2
10:10 81.3 °F 46.0 °F 29.62 in NE 6.0 mph 10.0 mph 29% 0.00 in meteobridge W/m2
10:16 82.2 °F 46.8 °F 29.62 in NNE 4.0 mph 10.0 mph 29% 0.00 in meteobridge W/m2
10:22 82.0 °F 46.6 °F 29.62 in North 12.1 mph 12.1 mph 29% 0.00 in meteobridge W/m2
10:32 81.3 °F 46.0 °F 29.62 in SSE 4.0 mph 10.0 mph 29% 0.00 in meteobridge W/m2
10:38 81.7 °F 46.4 °F 29.61 in South 6.0 mph 12.0 mph 29% 0.00 in meteobridge W/m2
10:45 83.1 °F 46.6 °F 29.62 in NNE 4.0 mph 6.0 mph 28% 0.00 in meteobridge W/m2
10:51 83.1 °F 46.6 °F 29.63 in ESE 2.9 mph 5.0 mph 28% 0.00 in meteobridge W/m2
10:57 83.1 °F 46.6 °F 29.62 in SE 0.9 mph 6.0 mph 28% 0.00 in meteobridge W/m2
11:03 83.7 °F 47.1 °F 29.62 in NNE 8.1 mph 14.0 mph 28% 0.00 in meteobridge W/m2
11:09 84.0 °F 46.4 °F 29.62 in ENE 4.0 mph 7.0 mph 27% 0.00 in meteobridge W/m2
11:15 84.7 °F 47.1 °F 29.62 in ENE 2.0 mph 11.0 mph 27% 0.00 in meteobridge W/m2
11:21 85.5 °F 48.6 °F 29.62 in South 4.9 mph 10.0 mph 28% 0.00 in meteobridge W/m2
11:28 83.8 °F 47.3 °F 29.62 in SSW 4.9 mph 14.0 mph 28% 0.00 in meteobridge W/m2
11:34 82.9 °F 47.5 °F 29.62 in SE 2.9 mph 5.0 mph 29% 0.00 in meteobridge W/m2
11:40 84.4 °F 47.7 °F 29.62 in NNE 11.0 mph 13.0 mph 28% 0.00 in meteobridge W/m2
11:52 84.6 °F 47.8 °F 29.60 in SSE 4.9 mph 6.0 mph 28% 0.00 in meteobridge W/m2
11:58 85.5 °F 47.7 °F 29.60 in NNE 6.0 mph 10.0 mph 27% 0.00 in meteobridge W/m2
12:04 83.1 °F 46.6 °F 29.60 in North 2.9 mph 19.0 mph 28% 0.00 in meteobridge W/m2
12:10 82.2 °F 45.9 °F 29.60 in NE 4.0 mph 11.0 mph 28% 0.00 in meteobridge W/m2
12:17 82.6 °F 46.2 °F 29.60 in NE 2.9 mph 7.0 mph 28% 0.00 in meteobridge W/m2
12:23 82.2 °F 45.9 °F 29.60 in NE 0.9 mph 4.0 mph 28% 0.00 in meteobridge W/m2
12:29 82.2 °F 48.6 °F 29.60 in Calm   4.0 mph 31% 0.00 in meteobridge W/m2
12:35 81.9 °F 50.0 °F 29.60 in NE 0.9 mph 10.0 mph 33% 0.00 in meteobridge W/m2
12:41 81.3 °F 48.6 °F 29.60 in ESE 0.9 mph 3.0 mph 32% 0.00 in meteobridge W/m2
12:53 81.3 °F 46.9 °F 29.59 in Calm   4.0 mph 30% 0.00 in meteobridge W/m2
13:00 82.6 °F 47.1 °F 29.59 in South 0.9 mph 2.0 mph 29% 0.00 in meteobridge W/m2
13:06 83.7 °F 47.1 °F 29.59 in NNE 4.0 mph 13.0 mph 28% 0.00 in meteobridge W/m2
13:12 83.5 °F 46.9 °F 29.60 in ENE 0.9 mph 6.0 mph 28% 0.00 in meteobridge W/m2
13:24 85.5 °F 47.7 °F 29.59 in North 6.9 mph 10.0 mph 27% 0.00 in meteobridge W/m2
13:32 82.9 °F 46.4 °F 29.59 in NE 14.1 mph 17.0 mph 28% 0.00 in meteobridge W/m2
13:38 84.0 °F 47.5 °F 29.58 in NNE 6.0 mph 15.0 mph 28% 0.00 in meteobridge W/m2
13:45 86.9 °F 47.8 °F 29.58 in NNE 13.0 mph 15.0 mph 26% 0.00 in meteobridge W/m2
13:51 87.3 °F 47.1 °F 29.58 in NNE 4.9 mph 12.0 mph 25% 0.00 in meteobridge W/m2
13:57 84.9 °F 46.2 °F 29.58 in NNE 2.9 mph 6.0 mph 26% 0.00 in meteobridge W/m2
14:07 83.8 °F 46.2 °F 29.57 in SE 0.9 mph 4.0 mph 27% 0.00 in meteobridge W/m2
14:13 84.6 °F 46.9 °F 29.57 in SE 0.9 mph 3.0 mph 27% 0.00 in meteobridge W/m2
14:19 86.5 °F 46.6 °F 29.57 in NW 2.0 mph 10.0 mph 25% 0.00 in meteobridge W/m2
14:25 87.4 °F 47.3 °F 29.57 in NE 4.0 mph 7.0 mph 25% 0.00 in meteobridge W/m2
14:36 87.1 °F 46.9 °F 29.57 in North 4.0 mph 9.0 mph 25% 0.00 in meteobridge W/m2
14:42 86.2 °F 46.2 °F 29.56 in Calm   4.0 mph 25% 0.00 in meteobridge W/m2
14:48 85.8 °F 46.9 °F 29.55 in SE 2.0 mph 6.0 mph 26% 0.00 in meteobridge W/m2
14:54 84.4 °F 45.7 °F 29.56 in SSW 4.9 mph 17.0 mph 26% 0.00 in meteobridge W/m2
15:06 82.8 °F 48.2 °F 29.55 in SSE 6.0 mph 13.0 mph 30% 0.00 in meteobridge W/m2
15:12 82.8 °F 48.2 °F 29.55 in SE 13.0 mph 17.0 mph 30% 0.00 in meteobridge W/m2
15:18 81.9 °F 47.3 °F 29.56 in SSE 14.1 mph 14.1 mph 30% 0.00 in meteobridge W/m2
15:24 80.2 °F 46.9 °F 29.56 in SSE 10.1 mph 16.0 mph 31% 0.00 in meteobridge W/m2
15:30 79.9 °F 47.3 °F 29.55 in South 11.0 mph 17.0 mph 32% 0.00 in meteobridge W/m2
15:36 80.8 °F 47.3 °F 29.55 in SSE 13.0 mph 13.0 mph 31% 0.00 in meteobridge W/m2
15:42 82.2 °F 47.7 °F 29.55 in SSE 12.1 mph 15.0 mph 30% 0.00 in meteobridge W/m2
15:48 83.5 °F 48.7 °F 29.54 in SSE 6.0 mph 12.0 mph 30% 0.00 in meteobridge W/m2
15:55 84.7 °F 48.0 °F 29.54 in South 4.9 mph 17.0 mph 28% 0.00 in meteobridge W/m2
16:01 84.7 °F 48.9 °F 29.54 in South 6.9 mph 12.0 mph 29% 0.00 in meteobridge W/m2
16:07 86.0 °F 48.2 °F 29.54 in ESE 10.1 mph 13.0 mph 27% 0.00 in meteobridge W/m2
16:13 85.1 °F 48.4 °F 29.54 in SE 4.0 mph 12.0 mph 28% 0.00 in meteobridge W/m2
16:19 85.8 °F 48.0 °F 29.53 in SSE 13.0 mph 14.0 mph 27% 0.00 in meteobridge W/m2
16:25 84.2 °F 47.5 °F 29.53 in South 4.0 mph 9.0 mph 28% 0.00 in meteobridge W/m2
16:32 84.2 °F 47.5 °F 29.52 in SSE 2.9 mph 6.0 mph 28% 0.00 in meteobridge W/m2
16:38 84.4 °F 46.8 °F 29.52 in SSE 4.9 mph 12.0 mph 27% 0.00 in meteobridge W/m2
16:44 83.5 °F 48.7 °F 29.52 in East 0.9 mph 7.0 mph 30% 0.00 in meteobridge W/m2
16:56 81.7 °F 47.3 °F 29.52 in NW 4.9 mph 11.0 mph 30% 0.00 in meteobridge W/m2
17:02 82.0 °F 48.4 °F 29.52 in NNW 4.0 mph 11.0 mph 31% 0.00 in meteobridge W/m2
17:08 81.7 °F 47.3 °F 29.52 in Calm   1.0 mph 30% 0.00 in meteobridge W/m2
17:14 81.5 °F 48.0 °F 29.52 in Calm   3.0 mph 31% 0.00 in meteobridge W/m2
17:20 81.3 °F 47.8 °F 29.52 in NNE 2.0 mph 3.0 mph 31% 0.00 in meteobridge W/m2
17:27 81.1 °F 46.8 °F 29.53 in Calm   2.0 mph 30% 0.00 in meteobridge W/m2
17:33 80.4 °F 46.9 °F 29.54 in NW 4.9 mph 11.0 mph 31% 0.00 in meteobridge W/m2
17:39 79.9 °F 46.6 °F 29.54 in South 2.0 mph 5.0 mph 31% 0.00 in meteobridge W/m2
17:45 79.5 °F 46.2 °F 29.53 in South 2.0 mph 9.0 mph 31% 0.00 in meteobridge W/m2
17:51 79.3 °F 46.9 °F 29.53 in SSW 4.0 mph 7.0 mph 32% 0.00 in meteobridge W/m2
17:57 79.3 °F 46.9 °F 29.53 in Calm   3.0 mph 32% 0.00 in meteobridge W/m2
18:03 80.1 °F 47.5 °F 29.53 in North 6.9 mph 7.0 mph 32% 0.00 in meteobridge W/m2
18:09 79.7 °F 47.3 °F 29.53 in North 6.0 mph 11.0 mph 32% 0.00 in meteobridge W/m2
18:16 79.3 °F 47.7 °F 29.53 in North 6.9 mph 9.0 mph 33% 0.00 in meteobridge W/m2
18:22 79.5 °F 47.1 °F 29.54 in NNW 4.9 mph 5.0 mph 32% 0.00 in meteobridge W/m2
18:28 80.2 °F 47.7 °F 29.53 in Calm   2.0 mph 32% 0.00 in meteobridge W/m2
18:34 80.6 °F 47.1 °F 29.53 in SSE 2.0 mph 4.0 mph 31% 0.00 in meteobridge W/m2
18:40 79.2 °F 47.7 °F 29.53 in SSW 4.0 mph 10.0 mph 33% 0.00 in meteobridge W/m2
18:46 78.3 °F 48.4 °F 29.54 in South 11.0 mph 12.0 mph 35% 0.00 in meteobridge W/m2
18:53 78.1 °F 48.2 °F 29.54 in SSE 6.0 mph 6.0 mph 35% 0.00 in meteobridge W/m2
19:06 78.1 °F 48.2 °F 29.54 in North -999.9 mph -999.0 mph 35% 0.00 in meteobridge W/m2
19:11 78.1 °F 48.2 °F 29.54 in North -999.9 mph -999.0 mph 35% 0.00 in meteobridge W/m2
Regenstein, Windhoek, Namibia
Compliments of Weather Underground - 2.5 mb